Higbee, Missouri
Current Conditions -  °F | °C
As of 4:15 AM on Tuesday 27 Jan 2015 (Local Time) from KVER Reporting Station
Clear Clear  
Wind Chill: 33°   Ceiling: Unl
Heat Index: 37°   Visibility: 10mi
Dew Point: 32°   Wind: 5mph
Humidity: 83%   Direction: 320°NW
Pressure: 30.05"   Gusts: NA
Location:  39.3°N, 92.51°W
Report Text: KVER 271015Z AUTO 32004KT 10SM CLR 03/00 A3005 RMK AO2 T00270000
Loading
Personal Weather Stations






























Interactive Weather Map New forecast layout! Learn more

10-Day Weather Forecast

Advertisements
Track Severe Weather on mobile